Concerto — JJ3855 — position and weather

sailwx.info

Track history (hours):
 
Tides and Currents Weather Stations Pressure Air Temp Water Temp Dewpoint Dewpoint Depression Visibility Wind Speed Wind Dir Waves Ship Positions

Concerto

Last reported at 2017-Aug-18 23:29 UTC. Time now 2017-Aug-18 23:36 UTC.
Position N 34°41' E 135°11'.

Length 74 m; draft 3 m.

Type: Passenger vessel. MMSI: 431000448.

Date/timePositionNaut miles runAvg speedWind from/ knotsBaromVisibWave heightAir tempDewpointWater temp
2017-Aug-18 23:29N 34°41' E 135°11'0 0.0
2017-Aug-18 22:53N 34°41' E 135°11'0 0.0
2017-Aug-18 22:17N 34°41' E 135°11'0 0.0
2017-Aug-18 21:53N 34°41' E 135°11'0 0.0
2017-Aug-18 21:29N 34°41' E 135°11'0 0.0
2017-Aug-18 20:59N 34°41' E 135°11'0 0.0
2017-Aug-18 20:28N 34°41' E 135°11'0 0.0
2017-Aug-18 19:59N 34°41' E 135°11'0 0.0
2017-Aug-18 19:29N 34°41' E 135°11'0 0.0
2017-Aug-18 18:52N 34°41' E 135°11'0 0.0
2017-Aug-18 18:29N 34°41' E 135°11'0 0.0
2017-Aug-18 17:59N 34°41' E 135°11'0 0.0
2017-Aug-18 17:29N 34°41' E 135°11'0 0.0
2017-Aug-18 16:59N 34°41' E 135°11'0 0.0
2017-Aug-18 16:28N 34°41' E 135°11'0 0.0
2017-Aug-18 15:47N 34°41' E 135°11'0 0.0
2017-Aug-18 15:29N 34°41' E 135°11'0 0.0
2017-Aug-18 14:58N 34°41' E 135°11'0 0.0
2017-Aug-18 14:29N 34°41' E 135°11'0 0.0
2017-Aug-18 13:28N 34°41' E 135°11'0 0.0
2017-Aug-18 12:53N 34°41' E 135°11'0 0.0
2017-Aug-18 12:29N 34°41' E 135°11'0 0.3
2017-Aug-18 12:00N 34°41' E 135°11'3 6.2
2017-Aug-18 11:30N 34°38' E 135°10'3 6.7
2017-Aug-18 11:00N 34°37' E 135°06'3 5.3
2017-Aug-18 10:30N 34°38' E 135°09'3 6.6
2017-Aug-18 10:00N 34°41' E 135°11'0 0.0
2017-Aug-18 09:28N 34°41' E 135°11'3 5.4
2017-Aug-18 09:00N 34°38' E 135°11'3 6.4
2017-Aug-18 08:30N 34°37' E 135°07'4 8.3
2017-Aug-18 08:00N 34°39' E 135°11'1 2.2
2017-Aug-18 07:23N 34°41' E 135°11'0 0.0
2017-Aug-18 06:59N 34°41' E 135°11'3 5.3
2017-Aug-18 06:30N 34°38' E 135°11'1 1.7
2017-Aug-18 06:00N 34°38' E 135°10'3 5.8
2017-Aug-18 05:30N 34°41' E 135°11'0 0.0
2017-Aug-18 04:55N 34°41' E 135°11'2 4.4
2017-Aug-18 04:30N 34°39' E 135°11'4 7.6
2017-Aug-18 04:00N 34°37' E 135°07'2 4.6
2017-Aug-18 03:30N 34°38' E 135°10'3 5.8
2017-Aug-18 03:00N 34°41' E 135°11'0 0.0
2017-Aug-18 02:21N 34°41' E 135°11'0 0.0
2017-Aug-18 01:51N 34°41' E 135°11'0 0.0
2017-Aug-18 01:27N 34°41' E 135°11'0 0.0
2017-Aug-18 00:51N 34°41' E 135°11'0 0.0
2017-Aug-18 00:15N 34°41' E 135°11'0 0.0
2017-Aug-17 23:57N 34°41' E 135°11'0 0.0
2017-Aug-17 23:27N 34°41' E 135°11'0 0.0
2017-Aug-17 22:57N 34°41' E 135°11'0 0.0
2017-Aug-17 22:27N 34°41' E 135°11'0 0.0
2017-Aug-17 21:57N 34°41' E 135°11'0 0.0
2017-Aug-17 21:21N 34°41' E 135°11'0 0.0
2017-Aug-17 20:45N 34°41' E 135°11'0 0.0
2017-Aug-17 20:27N 34°41' E 135°11'0 0.0
2017-Aug-17 19:57N 34°41' E 135°11'0 0.0
2017-Aug-17 19:21N 34°41' E 135°11'0 0.0
2017-Aug-17 18:51N 34°41' E 135°11'0 0.0
2017-Aug-17 18:27N 34°41' E 135°11'0 0.0
2017-Aug-17 17:57N 34°41' E 135°11'0 0.0
2017-Aug-17 17:27N 34°41' E 135°11'0 0.0
2017-Aug-17 16:51N 34°41' E 135°11'0 0.0
2017-Aug-17 16:27N 34°41' E 135°11'0 0.0
2017-Aug-17 15:51N 34°41' E 135°11'0 0.0
2017-Aug-17 15:27N 34°41' E 135°11'0 0.0
2017-Aug-17 14:57N 34°41' E 135°11'0 0.0
2017-Aug-17 14:27N 34°41' E 135°11'0 0.0
2017-Aug-17 13:21N 34°41' E 135°11'0 0.0
2017-Aug-17 12:57N 34°41' E 135°11'0 0.0
2017-Aug-17 12:15N 34°41' E 135°11'0 0.3
2017-Aug-17 12:00N 34°41' E 135°11'4 7.2
2017-Aug-17 11:30N 34°37' E 135°10'3 6.9
2017-Aug-17 11:00N 34°37' E 135°05'4 8.4
2017-Aug-17 10:30N 34°38' E 135°10'3 5.1
2017-Aug-17 10:00N 34°41' E 135°11'0 0.0
2017-Aug-17 09:25N 34°41' E 135°11'3 6.5
2017-Aug-17 09:00N 34°38' E 135°11'3 5.8
2017-Aug-17 08:30N 34°37' E 135°07'4 8.0
2017-Aug-17 08:00N 34°40' E 135°11'1 2.6
2017-Aug-17 07:30N 34°41' E 135°11'0 0.0
2017-Aug-17 07:00N 34°41' E 135°11'3 5.4
2017-Aug-17 06:30N 34°38' E 135°11'1 1.5
2017-Aug-17 06:00N 34°38' E 135°10'3 6.0
2017-Aug-17 05:30N 34°41' E 135°11'0 0.0
2017-Aug-17 04:58N 34°41' E 135°11'2 4.9
2017-Aug-17 04:30N 34°39' E 135°11'4 8.3
2017-Aug-17 04:00N 34°37' E 135°06'3 6.2
2017-Aug-17 03:30N 34°38' E 135°10'3 5.8
2017-Aug-17 03:00N 34°41' E 135°11'0 0.0
2017-Aug-17 02:30N 34°41' E 135°11'0 0.0
2017-Aug-17 02:00N 34°41' E 135°11'0 0.0
2017-Aug-17 01:21N 34°41' E 135°11'0 0.0
2017-Aug-17 00:57N 34°41' E 135°11'0 0.0
2017-Aug-17 00:21N 34°41' E 135°11'0 0.0
2017-Aug-16 23:57N 34°41' E 135°11'0 0.0
2017-Aug-16 23:27N 34°41' E 135°11'0 0.0
2017-Aug-16 22:51N 34°41' E 135°11'0 0.0
2017-Aug-16 22:27N 34°41' E 135°11'0 0.0
2017-Aug-16 21:57N 34°41' E 135°11'0 0.0
2017-Aug-16 21:27N 34°41' E 135°11'0 0.0
2017-Aug-16 20:57N 34°41' E 135°11'0 0.0
2017-Aug-16 20:27N 34°41' E 135°11'0 0.0
2017-Aug-16 19:57N 34°41' E 135°11'0 0.0
2017-Aug-16 19:27N 34°41' E 135°11'0 0.0
2017-Aug-16 18:57N 34°41' E 135°11'0 0.0
2017-Aug-16 18:27N 34°41' E 135°11'0 0.0
2017-Aug-16 17:57N 34°41' E 135°11'0 0.0
2017-Aug-16 17:27N 34°41' E 135°11'0 0.0
2017-Aug-16 16:57N 34°41' E 135°11'0 0.0
2017-Aug-16 16:27N 34°41' E 135°11'0 0.0
2017-Aug-16 15:57N 34°41' E 135°11'0 0.0
2017-Aug-16 15:27N 34°41' E 135°11'0 0.0
2017-Aug-16 14:51N 34°41' E 135°11'0 0.0
2017-Aug-16 14:27N 34°41' E 135°11'0 0.0
2017-Aug-16 13:51N 34°41' E 135°11'0 0.0
2017-Aug-16 13:27N 34°41' E 135°11'0 0.0
2017-Aug-16 12:57N 34°41' E 135°11'0 0.0
2017-Aug-16 12:27N 34°41' E 135°11'0 0.1
2017-Aug-16 12:00N 34°41' E 135°11'3 7.0
2017-Aug-16 11:30N 34°38' E 135°09'4 7.8
2017-Aug-16 11:00N 34°37' E 135°05'4 8.2
2017-Aug-16 10:30N 34°38' E 135°10'3 6.1
2017-Aug-16 10:00N 34°41' E 135°11'0 0.0
2017-Aug-16 09:29N 34°41' E 135°11'3 5.8
2017-Aug-16 09:01N 34°38' E 135°10'3 5.1
2017-Aug-16 08:31N 34°37' E 135°08'4 8.2
2017-Aug-16 08:01N 34°40' E 135°11'1 2.4
2017-Aug-16 07:30N 34°41' E 135°11'0 0.0
2017-Aug-16 06:55N 34°41' E 135°11'3 6.9
2017-Aug-16 06:30N 34°38' E 135°11'1 1.8
2017-Aug-16 06:00N 34°38' E 135°10'3 6.2
2017-Aug-16 05:30N 34°41' E 135°11'0 0.0
2017-Aug-16 04:57N 34°41' E 135°11'2 4.0
2017-Aug-16 04:30N 34°39' E 135°11'4 7.4
2017-Aug-16 04:00N 34°38' E 135°07'2 4.1
2017-Aug-16 03:30N 34°38' E 135°10'3 6.4
2017-Aug-16 03:00N 34°41' E 135°11'0 0.0
2017-Aug-16 02:30N 34°41' E 135°11'0 0.0
2017-Aug-16 02:00N 34°41' E 135°11'0 0.0
2017-Aug-16 01:25N 34°41' E 135°11'0 0.0
2017-Aug-16 00:55N 34°41' E 135°11'0 0.0
2017-Aug-16 00:25N 34°41' E 135°11'0 0.0
2017-Aug-16 00:00N 34°41' E 135°11'0 0.0
2017-Aug-15 23:18N 34°41' E 135°11'0 0.0
2017-Aug-15 22:55N 34°41' E 135°11'0 0.0
2017-Aug-15 22:25N 34°41' E 135°11'0 0.0
2017-Aug-15 21:49N 34°41' E 135°11'0 0.0
2017-Aug-15 21:19N 34°41' E 135°11'0 0.0
2017-Aug-15 21:01N 34°41' E 135°11'0 0.0
2017-Aug-15 20:31N 34°41' E 135°11'0 0.0
2017-Aug-15 19:55N 34°41' E 135°11'0 0.0
2017-Aug-15 19:31N 34°41' E 135°11'0 0.0
2017-Aug-15 18:54N 34°41' E 135°11'0 0.0
2017-Aug-15 18:31N 34°41' E 135°11'0 0.0
2017-Aug-15 18:01N 34°41' E 135°11'0 0.0
2017-Aug-15 17:25N 34°41' E 135°11'0 0.0
2017-Aug-15 16:55N 34°41' E 135°11'0 0.0
2017-Aug-15 16:31N 34°41' E 135°11'0 0.0
2017-Aug-15 15:49N 34°41' E 135°11'0 0.0
2017-Aug-15 15:25N 34°41' E 135°11'0 0.0
2017-Aug-15 14:55N 34°41' E 135°11'0 0.0
2017-Aug-15 14:25N 34°41' E 135°11'0 0.0
2017-Aug-15 14:01N 34°41' E 135°11'0 0.0
2017-Aug-15 13:30N 34°41' E 135°11'0 0.0
2017-Aug-15 12:55N 34°41' E 135°11'0 0.0
2017-Aug-15 12:31N 34°41' E 135°11'0 0.1
2017-Aug-15 12:00N 34°41' E 135°11'3 6.8
2017-Aug-15 11:30N 34°38' E 135°10'3 6.9
2017-Aug-15 11:00N 34°37' E 135°06'4 7.6
2017-Aug-15 10:30N 34°38' E 135°10'3 5.7
2017-Aug-15 10:00N 34°41' E 135°11'0 0.0
2017-Aug-15 09:27N 34°41' E 135°11'2 4.9
2017-Aug-15 09:01N 34°39' E 135°11'3 6.2
2017-Aug-15 08:30N 34°37' E 135°08'4 8.1
2017-Aug-15 08:00N 34°40' E 135°11'1 1.2
2017-Aug-15 07:18N 34°41' E 135°11'0 0.0
2017-Aug-15 07:00N 34°41' E 135°11'3 5.4
2017-Aug-15 06:30N 34°38' E 135°11'1 1.6
2017-Aug-15 06:00N 34°38' E 135°10'3 5.8
2017-Aug-15 05:30N 34°41' E 135°11'0 0.0
2017-Aug-15 04:51N 34°41' E 135°11'2 5.9
2017-Aug-15 04:30N 34°39' E 135°11'4 7.2
2017-Aug-15 04:00N 34°37' E 135°07'2 3.9
2017-Aug-15 03:30N 34°38' E 135°10'3 6.3
2017-Aug-15 03:00N 34°41' E 135°11'0 0.0
2017-Aug-15 02:30N 34°41' E 135°11'0 0.0
2017-Aug-15 02:00N 34°41' E 135°11'0 0.0
2017-Aug-15 01:30N 34°41' E 135°11'0 0.0
2017-Aug-15 01:00N 34°41' E 135°11'0 0.0
2017-Aug-15 00:30N 34°41' E 135°11'0 0.0
2017-Aug-14 23:54N 34°41' E 135°11'0 0.0
2017-Aug-14 23:30N 34°41' E 135°11'0 0.0
2017-Aug-14 23:00N 34°41' E 135°11'0 0.0
2017-Aug-14 22:30N 34°41' E 135°11'0 0.0
2017-Aug-14 21:48N 34°41' E 135°11'0 0.0
2017-Aug-14 21:30N 34°41' E 135°11'0 0.0
2017-Aug-14 21:00N 34°41' E 135°11'0 0.0
2017-Aug-14 20:30N 34°41' E 135°11'0 0.0
2017-Aug-14 20:00N 34°41' E 135°11'0 0.0
2017-Aug-14 19:30N 34°41' E 135°11'0 0.0
2017-Aug-14 19:00N 34°41' E 135°11'0 0.0
2017-Aug-14 18:30N 34°41' E 135°11'0 0.0
2017-Aug-14 17:54N 34°41' E 135°11'0 0.0
2017-Aug-14 17:30N 34°41' E 135°11'0 0.0
2017-Aug-14 17:00N 34°41' E 135°11'0 0.0
2017-Aug-14 16:30N 34°41' E 135°11'0 0.0
2017-Aug-14 16:00N 34°41' E 135°11'0 0.0
2017-Aug-14 15:30N 34°41' E 135°11'0 0.0
2017-Aug-14 15:00N 34°41' E 135°11'0 0.0
2017-Aug-14 14:30N 34°41' E 135°11'0 0.0
2017-Aug-14 14:00N 34°41' E 135°11'0 0.0
2017-Aug-14 13:30N 34°41' E 135°11'0 0.0
2017-Aug-14 12:54N 34°41' E 135°11'0 0.0
2017-Aug-14 12:30N 34°41' E 135°11'0 0.5
2017-Aug-14 12:00N 34°41' E 135°11'4 7.3
2017-Aug-14 11:30N 34°37' E 135°09'3 6.0
2017-Aug-14 11:00N 34°37' E 135°06'4 8.0
2017-Aug-14 10:30N 34°38' E 135°10'3 5.7
2017-Aug-14 10:00N 34°41' E 135°11'0 0.0
2017-Aug-14 09:28N 34°41' E 135°11'2 5.3
2017-Aug-14 09:00N 34°38' E 135°11'3 6.4
2017-Aug-14 08:30N 34°37' E 135°07'4 7.7
2017-Aug-14 08:00N 34°39' E 135°11'1 2.7
2017-Aug-14 07:31N 34°41' E 135°11'0 0.0
2017-Aug-14 06:54N 34°41' E 135°11'3 6.6
2017-Aug-14 06:30N 34°38' E 135°11'1 2.0
2017-Aug-14 06:00N 34°38' E 135°10'3 5.5
2017-Aug-14 05:30N 34°41' E 135°11'0 0.0
2017-Aug-14 04:57N 34°41' E 135°11'2 4.5
2017-Aug-14 04:30N 34°39' E 135°11'4 8.1
2017-Aug-14 04:00N 34°37' E 135°07'3 5.9
2017-Aug-14 03:30N 34°38' E 135°10'3 5.1
2017-Aug-14 03:00N 34°41' E 135°11'0 0.0
2017-Aug-14 02:30N 34°41' E 135°11'0 0.0
2017-Aug-14 02:00N 34°41' E 135°11'0 0.0
2017-Aug-14 01:30N 34°41' E 135°11'0 0.0
2017-Aug-14 00:54N 34°41' E 135°11'0 0.0
2017-Aug-14 00:30N 34°41' E 135°11'0 0.0
2017-Aug-14 00:00N 34°41' E 135°11'0 0.0
2017-Aug-13 23:30N 34°41' E 135°11'0 0.0
2017-Aug-13 23:00N 34°41' E 135°11'0 0.0
2017-Aug-13 22:30N 34°41' E 135°11'0 0.0
2017-Aug-13 21:54N 34°41' E 135°11'0 0.0
2017-Aug-13 21:30N 34°41' E 135°11'0 0.0
2017-Aug-13 21:00N 34°41' E 135°11'0 0.0
2017-Aug-13 19:48N 34°41' E 135°11'0 0.0
2017-Aug-13 19:30N 34°41' E 135°11'0 0.0
2017-Aug-13 19:00N 34°41' E 135°11'0 0.0
2017-Aug-13 18:24N 34°41' E 135°11'0 0.0
2017-Aug-13 18:00N 34°41' E 135°11'0 0.0
2017-Aug-13 17:30N 34°41' E 135°11'0 0.0
2017-Aug-13 17:00N 34°41' E 135°11'0 0.0
2017-Aug-13 16:24N 34°41' E 135°11'0 0.0
2017-Aug-13 16:00N 34°41' E 135°11'0 0.0
2017-Aug-13 15:30N 34°41' E 135°11'0 0.0
2017-Aug-13 15:00N 34°41' E 135°11'0 0.0
2017-Aug-13 14:30N 34°41' E 135°11'0 0.0
2017-Aug-13 14:00N 34°41' E 135°11'0 0.0
2017-Aug-13 13:30N 34°41' E 135°11'0 0.0
2017-Aug-13 13:00N 34°41' E 135°11'0 0.0
2017-Aug-13 12:30N 34°41' E 135°11'0 0.6
2017-Aug-13 12:00N 34°41' E 135°11'4 7.3
2017-Aug-13 11:30N 34°37' E 135°10'4 8.3
2017-Aug-13 11:00N 34°37' E 135°05'4 8.4
2017-Aug-13 10:30N 34°38' E 135°10'3 6.4
2017-Aug-13 10:00N 34°41' E 135°11'0 0.0
2017-Aug-13 09:27N 34°41' E 135°11'2 4.4
2017-Aug-13 09:00N 34°39' E 135°11'3 6.1
2017-Aug-13 08:30N 34°38' E 135°08'4 7.1
2017-Aug-13 08:00N 34°40' E 135°11'1 2.2
2017-Aug-13 07:30N 34°41' E 135°11'0 0.0
2017-Aug-13 06:55N 34°41' E 135°11'2 4.9
2017-Aug-13 06:30N 34°39' E 135°11'1 2.8
2017-Aug-13 06:00N 34°38' E 135°10'3 6.0
2017-Aug-13 05:30N 34°41' E 135°11'0 0.0
2017-Aug-13 04:53N 34°41' E 135°11'2 4.1
2017-Aug-13 04:30N 34°39' E 135°11'4 8.5
2017-Aug-13 04:00N 34°37' E 135°07'3 5.4
2017-Aug-13 03:30N 34°38' E 135°10'3 6.0
2017-Aug-13 03:00N 34°41' E 135°11'0 0.0
2017-Aug-13 02:29N 34°41' E 135°11'0 0.0
2017-Aug-13 01:53N 34°41' E 135°11'0 0.0
2017-Aug-13 01:29N 34°41' E 135°11'0 0.0
2017-Aug-13 00:59N 34°41' E 135°11'0 0.0
2017-Aug-13 00:29N 34°41' E 135°11'0 0.0
2017-Aug-12 23:58N 34°41' E 135°11'0 0.0
2017-Aug-12 23:29N 34°41' E 135°11'0 0.0
2017-Aug-12 22:59N 34°41' E 135°11'0 0.0
2017-Aug-12 22:28N 34°41' E 135°11'0 0.0
2017-Aug-12 21:59N 34°41' E 135°11'0 0.0
2017-Aug-12 21:28N 34°41' E 135°11'0 0.0
2017-Aug-12 20:59N 34°41' E 135°11'0 0.0
2017-Aug-12 20:23N 34°41' E 135°11'0 0.0
2017-Aug-12 19:59N 34°41' E 135°11'0 0.0
2017-Aug-12 19:23N 34°41' E 135°11'0 0.0
2017-Aug-12 18:58N 34°41' E 135°11'0 0.0
2017-Aug-12 18:28N 34°41' E 135°11'0 0.0
2017-Aug-12 17:59N 34°41' E 135°11'0 0.0
2017-Aug-12 17:28N 34°41' E 135°11'0 0.0
2017-Aug-12 16:58N 34°41' E 135°11'0 0.0
2017-Aug-12 16:28N 34°41' E 135°11'0 0.0
2017-Aug-12 15:59N 34°41' E 135°11'0 0.0
2017-Aug-12 15:29N 34°41' E 135°11'0 0.0
2017-Aug-12 14:59N 34°41' E 135°11'0 0.0
2017-Aug-12 14:23N 34°41' E 135°11'0 0.0
2017-Aug-12 13:59N 34°41' E 135°11'0 0.0
2017-Aug-12 13:29N 34°41' E 135°11'0 0.0
2017-Aug-12 12:59N 34°41' E 135°11'0 0.0
2017-Aug-12 12:29N 34°41' E 135°11'0 0.3
2017-Aug-12 12:00N 34°41' E 135°11'3 7.0
2017-Aug-12 11:30N 34°37' E 135°10'4 8.4
2017-Aug-12 11:00N 34°37' E 135°05'4 8.5
2017-Aug-12 10:30N 34°38' E 135°10'3 5.6
2017-Aug-12 10:00N 34°41' E 135°11'0 0.0
2017-Aug-12 09:23N 34°41' E 135°11'2 6.5
2017-Aug-12 09:00N 34°38' E 135°11'3 5.9
2017-Aug-12 08:30N 34°37' E 135°08'4 8.3
2017-Aug-12 08:00N 34°40' E 135°11'1 2.5
2017-Aug-12 07:30N 34°41' E 135°11'0 0.0
2017-Aug-12 07:00N 34°41' E 135°11'3 5.1
2017-Aug-12 06:30N 34°38' E 135°11'1 2.1
2017-Aug-12 06:00N 34°38' E 135°10'3 5.9
2017-Aug-12 05:30N 34°41' E 135°11'0 0.0
2017-Aug-12 04:57N 34°41' E 135°11'2 4.4
2017-Aug-12 04:30N 34°39' E 135°11'4 8.1
2017-Aug-12 04:00N 34°37' E 135°07'3 5.6
2017-Aug-12 03:30N 34°38' E 135°10'3 5.7
2017-Aug-12 03:00N 34°41' E 135°11'0 0.0
2017-Aug-12 02:30N 34°41' E 135°11'0 0.0
2017-Aug-12 02:00N 34°41' E 135°11'0 0.0
2017-Aug-12 01:29N 34°41' E 135°11'0 0.0
2017-Aug-12 00:59N 34°41' E 135°11'0 0.0
2017-Aug-12 00:17N 34°41' E 135°11'0 0.0
2017-Aug-11 23:59N 34°41' E 135°11'0 0.0
2017-Aug-11 23:29N 34°41' E 135°11'0 0.0
2017-Aug-11 22:59N 34°41' E 135°11'0 0.0
2017-Aug-11 22:29N 34°41' E 135°11'0 0.0
2017-Aug-11 21:53N 34°41' E 135°11'0 0.0
2017-Aug-11 21:23N 34°41' E 135°11'0 0.0
2017-Aug-11 20:59N 34°41' E 135°11'0 0.0
2017-Aug-11 20:23N 34°41' E 135°11'0 0.0
2017-Aug-11 19:59N 34°41' E 135°11'0 0.0
2017-Aug-11 19:29N 34°41' E 135°11'0 0.0
2017-Aug-11 18:59N 34°41' E 135°11'0 0.0
2017-Aug-11 18:29N 34°41' E 135°11'0 0.0
2017-Aug-11 17:59N 34°41' E 135°11'0 0.0
2017-Aug-11 17:29N 34°41' E 135°11'0 0.0
2017-Aug-11 16:59N 34°41' E 135°11'0 0.0
2017-Aug-11 16:29N 34°41' E 135°11'0 0.0
2017-Aug-11 15:59N 34°41' E 135°11'0 0.0
2017-Aug-11 15:29N 34°41' E 135°11'0 0.0
2017-Aug-11 14:59N 34°41' E 135°11'0 0.0
2017-Aug-11 13:59N 34°41' E 135°11'0 0.0
2017-Aug-11 13:29N 34°41' E 135°11'0 0.0
2017-Aug-11 12:59N 34°41' E 135°11'0 0.0
2017-Aug-11 12:23N 34°41' E 135°11'0 0.5
2017-Aug-11 12:00N 34°41' E 135°11'3 6.8
2017-Aug-11 11:30N 34°38' E 135°10'4 7.4
2017-Aug-11 11:00N 34°36' E 135°05'4 8.1
2017-Aug-11 10:30N 34°38' E 135°10'3 5.8
2017-Aug-11 10:00N 34°41' E 135°11'0 0.0
2017-Aug-11 09:25N 34°41' E 135°11'3 6.8
2017-Aug-11 09:00N 34°38' E 135°10'2 3.8
2017-Aug-11 08:30N 34°37' E 135°08'4 7.5
2017-Aug-11 08:00N 34°40' E 135°11'1 2.2
2017-Aug-11 07:30N 34°41' E 135°11'0 0.0
2017-Aug-11 07:00N 34°41' E 135°11'3 5.7
2017-Aug-11 06:30N 34°38' E 135°11'0 0.3
2017-Aug-11 06:00N 34°38' E 135°11'3 5.3
2017-Aug-11 05:30N 34°41' E 135°11'0 0.0
2017-Aug-11 05:00N 34°41' E 135°11'2 3.8
2017-Aug-11 04:30N 34°39' E 135°11'4 8.4
2017-Aug-11 04:00N 34°37' E 135°07'3 5.3
2017-Aug-11 03:30N 34°38' E 135°10'3 6.2
2017-Aug-11 03:00N 34°41' E 135°11'0 0.0
2017-Aug-11 02:30N 34°41' E 135°11'0 0.0
2017-Aug-11 01:53N 34°41' E 135°11'0 0.0
2017-Aug-11 01:29N 34°41' E 135°11'0 0.0
2017-Aug-11 00:59N 34°41' E 135°11'0 0.0
2017-Aug-11 00:29N 34°41' E 135°11'0 0.0
2017-Aug-10 23:59N 34°41' E 135°11'0 0.0
2017-Aug-10 23:29N 34°41' E 135°11'0 0.0
2017-Aug-10 22:59N 34°41' E 135°11'0 0.0
2017-Aug-10 22:29N 34°41' E 135°11'0 0.0
2017-Aug-10 21:59N 34°41' E 135°11'0 0.0
2017-Aug-10 21:29N 34°41' E 135°11'0 0.0
2017-Aug-10 20:59N 34°41' E 135°11'0 0.0
2017-Aug-10 20:23N 34°41' E 135°11'0 0.0
2017-Aug-10 19:59N 34°41' E 135°11'0 0.0
2017-Aug-10 19:29N 34°41' E 135°11'0 0.0
2017-Aug-10 18:59N 34°41' E 135°11'0 0.0
2017-Aug-10 18:29N 34°41' E 135°11'0 0.0
2017-Aug-10 17:53N 34°41' E 135°11'0 0.0
2017-Aug-10 17:29N 34°41' E 135°11'0 0.0
2017-Aug-10 16:53N 34°41' E 135°11'0 0.0
2017-Aug-10 16:23N 34°41' E 135°11'0 0.0
2017-Aug-10 15:59N 34°41' E 135°11'0 0.0
2017-Aug-10 15:29N 34°41' E 135°11'0 0.0
2017-Aug-10 14:59N 34°41' E 135°11'0 0.0
2017-Aug-10 14:29N 34°41' E 135°11'0 0.0
2017-Aug-10 13:47N 34°41' E 135°11'0 0.0
2017-Aug-10 13:29N 34°41' E 135°11'0 0.0
2017-Aug-10 12:59N 34°41' E 135°11'0 0.0
2017-Aug-10 12:29N 34°41' E 135°11'0 0.3
2017-Aug-10 12:00N 34°41' E 135°11'3 6.8
2017-Aug-10 11:30N 34°38' E 135°09'4 7.7
2017-Aug-10 11:00N 34°37' E 135°05'4 8.4
2017-Aug-10 10:30N 34°38' E 135°10'3 6.0
2017-Aug-10 10:00N 34°41' E 135°11'0 0.0
2017-Aug-10 09:26N 34°41' E 135°11'3 6.1
2017-Aug-10 09:00N 34°38' E 135°11'3 5.9
2017-Aug-10 08:30N 34°37' E 135°07'4 8.0
2017-Aug-10 08:00N 34°40' E 135°11'1 2.3
2017-Aug-10 07:27N 34°41' E 135°11'0 0.0
2017-Aug-10 06:57N 34°41' E 135°11'2 5.2
2017-Aug-10 06:30N 34°38' E 135°11'1 1.8
2017-Aug-10 06:00N 34°38' E 135°10'3 5.9
2017-Aug-10 05:30N 34°41' E 135°11'0 0.0
2017-Aug-10 04:56N 34°41' E 135°11'2 4.9
2017-Aug-10 04:30N 34°39' E 135°11'4 8.6
2017-Aug-10 04:00N 34°37' E 135°06'3 5.3
2017-Aug-10 03:30N 34°38' E 135°09'3 6.1
2017-Aug-10 03:00N 34°41' E 135°11'0 0.0
2017-Aug-10 02:30N 34°41' E 135°11'0 0.0
2017-Aug-10 01:51N 34°41' E 135°11'0 0.0
2017-Aug-10 01:27N 34°41' E 135°11'0 0.0
2017-Aug-10 00:56N 34°41' E 135°11'0 0.0
2017-Aug-10 00:27N 34°41' E 135°11'0 0.0
2017-Aug-09 23:57N 34°41' E 135°11'0 0.0
2017-Aug-09 23:27N 34°41' E 135°11'0 0.0
2017-Aug-09 22:56N 34°41' E 135°11'0 0.0
2017-Aug-09 22:21N 34°41' E 135°11'0 0.0
2017-Aug-09 21:57N 34°41' E 135°11'0 0.0
2017-Aug-09 21:20N 34°41' E 135°11'0 0.0
2017-Aug-09 20:50N 34°41' E 135°11'0 0.0
2017-Aug-09 20:21N 34°41' E 135°11'0 0.0
2017-Aug-09 19:56N 34°41' E 135°11'0 0.0
2017-Aug-09 19:27N 34°41' E 135°11'0 0.0
2017-Aug-09 18:51N 34°41' E 135°11'0 0.0
2017-Aug-09 18:26N 34°41' E 135°11'0 0.0
2017-Aug-09 17:56N 34°41' E 135°11'0 0.0
2017-Aug-09 17:26N 34°41' E 135°11'0 0.0
2017-Aug-09 16:56N 34°41' E 135°11'0 0.0
2017-Aug-09 16:27N 34°41' E 135°11'0 0.0
2017-Aug-09 15:57N 34°41' E 135°11'0 0.0
2017-Aug-09 15:20N 34°41' E 135°11'0 0.0
2017-Aug-09 14:51N 34°41' E 135°11'0 0.0
2017-Aug-09 14:26N 34°41' E 135°11'0 0.0
2017-Aug-09 13:56N 34°41' E 135°11'0 0.0
2017-Aug-09 13:20N 34°41' E 135°11'0 0.0
2017-Aug-09 12:56N 34°41' E 135°11'0 0.0
2017-Aug-09 12:26N 34°41' E 135°11'0 0.1
2017-Aug-09 12:00N 34°41' E 135°11'3 6.6
2017-Aug-09 11:30N 34°38' E 135°10'4 8.0
2017-Aug-09 11:00N 34°37' E 135°05'4 8.5
2017-Aug-09 10:30N 34°38' E 135°10'3 5.9
2017-Aug-09 10:00N 34°41' E 135°11'0 0.0
2017-Aug-09 09:30N 34°41' E 135°11'3 5.3
2017-Aug-09 09:00N 34°38' E 135°11'3 6.4
2017-Aug-09 08:30N 34°38' E 135°07'4 8.4
2017-Aug-09 08:00N 34°39' E 135°11'1 2.0
2017-Aug-09 07:20N 34°41' E 135°11'0 0.0
2017-Aug-09 06:57N 34°41' E 135°11'3 6.6
2017-Aug-09 06:30N 34°38' E 135°11'1 1.1
2017-Aug-09 06:00N 34°38' E 135°10'3 5.8
2017-Aug-09 05:30N 34°41' E 135°11'0 0.0
2017-Aug-09 05:00N 34°41' E 135°11'2 4.9
2017-Aug-09 04:30N 34°38' E 135°11'4 8.9
2017-Aug-09 04:00N 34°37' E 135°06'4 7.0
2017-Aug-09 03:30N 34°38' E 135°10'3 5.4
2017-Aug-09 03:00N 34°41' E 135°11'0 0.0
2017-Aug-09 02:30N 34°41' E 135°11'0 0.0
2017-Aug-09 02:00N 34°41' E 135°11'0 0.0
2017-Aug-09 01:28N 34°41' E 135°11'0 0.0
2017-Aug-09 00:52N 34°41' E 135°11'0 0.0
2017-Aug-09 00:28N 34°41' E 135°11'0 0.0
2017-Aug-08 23:58N 34°41' E 135°11'  
Track history (hours):
 
Tides and Currents Weather Stations Pressure Air Temp Water Temp Dewpoint Dewpoint Depression Visibility Wind Speed Wind Dir Waves Ship Positions

Concerto

Last reported at 2017-Aug-18 23:29 UTC. Time now 2017-Aug-18 23:36 UTC.
Position N 34°41' E 135°11'.

Length 74 m; draft 3 m.

Type: Passenger vessel. MMSI: 431000448.

Date/timePositionNaut miles runAvg speedWind from/ knotsBaromVisibWave heightAir tempDewpointWater temp
2017-Aug-18 23:29N 34°41' E 135°11'0 0.0
2017-Aug-18 22:53N 34°41' E 135°11'0 0.0
2017-Aug-18 22:17N 34°41' E 135°11'0 0.0
2017-Aug-18 21:53N 34°41' E 135°11'0 0.0
2017-Aug-18 21:29N 34°41' E 135°11'0 0.0
2017-Aug-18 20:59N 34°41' E 135°11'0 0.0
2017-Aug-18 20:28N 34°41' E 135°11'0 0.0
2017-Aug-18 19:59N 34°41' E 135°11'0 0.0
2017-Aug-18 19:29N 34°41' E 135°11'0 0.0
2017-Aug-18 18:52N 34°41' E 135°11'0 0.0
2017-Aug-18 18:29N 34°41' E 135°11'0 0.0
2017-Aug-18 17:59N 34°41' E 135°11'0 0.0
2017-Aug-18 17:29N 34°41' E 135°11'0 0.0
2017-Aug-18 16:59N 34°41' E 135°11'0 0.0
2017-Aug-18 16:28N 34°41' E 135°11'0 0.0
2017-Aug-18 15:47N 34°41' E 135°11'0 0.0
2017-Aug-18 15:29N 34°41' E 135°11'0 0.0
2017-Aug-18 14:58N 34°41' E 135°11'0 0.0
2017-Aug-18 14:29N 34°41' E 135°11'0 0.0
2017-Aug-18 13:28N 34°41' E 135°11'0 0.0
2017-Aug-18 12:53N 34°41' E 135°11'0 0.0
2017-Aug-18 12:29N 34°41' E 135°11'0 0.3
2017-Aug-18 12:00N 34°41' E 135°11'3 6.2
2017-Aug-18 11:30N 34°38' E 135°10'3 6.7
2017-Aug-18 11:00N 34°37' E 135°06'3 5.3
2017-Aug-18 10:30N 34°38' E 135°09'3 6.6
2017-Aug-18 10:00N 34°41' E 135°11'0 0.0
2017-Aug-18 09:28N 34°41' E 135°11'3 5.4
2017-Aug-18 09:00N 34°38' E 135°11'3 6.4
2017-Aug-18 08:30N 34°37' E 135°07'4 8.3
2017-Aug-18 08:00N 34°39' E 135°11'1 2.2
2017-Aug-18 07:23N 34°41' E 135°11'0 0.0
2017-Aug-18 06:59N 34°41' E 135°11'3 5.3
2017-Aug-18 06:30N 34°38' E 135°11'1 1.7
2017-Aug-18 06:00N 34°38' E 135°10'3 5.8
2017-Aug-18 05:30N 34°41' E 135°11'0 0.0
2017-Aug-18 04:55N 34°41' E 135°11'2 4.4
2017-Aug-18 04:30N 34°39' E 135°11'4 7.6
2017-Aug-18 04:00N 34°37' E 135°07'2 4.6
2017-Aug-18 03:30N 34°38' E 135°10'3 5.8
2017-Aug-18 03:00N 34°41' E 135°11'0 0.0
2017-Aug-18 02:21N 34°41' E 135°11'0 0.0
2017-Aug-18 01:51N 34°41' E 135°11'0 0.0
2017-Aug-18 01:27N 34°41' E 135°11'0 0.0
2017-Aug-18 00:51N 34°41' E 135°11'0 0.0
2017-Aug-18 00:15N 34°41' E 135°11'0 0.0
2017-Aug-17 23:57N 34°41' E 135°11'0 0.0
2017-Aug-17 23:27N 34°41' E 135°11'0 0.0
2017-Aug-17 22:57N 34°41' E 135°11'0 0.0
2017-Aug-17 22:27N 34°41' E 135°11'0 0.0
2017-Aug-17 21:57N 34°41' E 135°11'0 0.0
2017-Aug-17 21:21N 34°41' E 135°11'0 0.0
2017-Aug-17 20:45N 34°41' E 135°11'0 0.0
2017-Aug-17 20:27N 34°41' E 135°11'0 0.0
2017-Aug-17 19:57N 34°41' E 135°11'0 0.0
2017-Aug-17 19:21N 34°41' E 135°11'0 0.0
2017-Aug-17 18:51N 34°41' E 135°11'0 0.0
2017-Aug-17 18:27N 34°41' E 135°11'0 0.0
2017-Aug-17 17:57N 34°41' E 135°11'0 0.0
2017-Aug-17 17:27N 34°41' E 135°11'0 0.0
2017-Aug-17 16:51N 34°41' E 135°11'0 0.0
2017-Aug-17 16:27N 34°41' E 135°11'0 0.0
2017-Aug-17 15:51N 34°41' E 135°11'0 0.0
2017-Aug-17 15:27N 34°41' E 135°11'0 0.0
2017-Aug-17 14:57N 34°41' E 135°11'0 0.0
2017-Aug-17 14:27N 34°41' E 135°11'0 0.0
2017-Aug-17 13:21N 34°41' E 135°11'0 0.0
2017-Aug-17 12:57N 34°41' E 135°11'0 0.0
2017-Aug-17 12:15N 34°41' E 135°11'0 0.3
2017-Aug-17 12:00N 34°41' E 135°11'4 7.2
2017-Aug-17 11:30N 34°37' E 135°10'3 6.9
2017-Aug-17 11:00N 34°37' E 135°05'4 8.4
2017-Aug-17 10:30N 34°38' E 135°10'3 5.1
2017-Aug-17 10:00N 34°41' E 135°11'0 0.0
2017-Aug-17 09:25N 34°41' E 135°11'3 6.5
2017-Aug-17 09:00N 34°38' E 135°11'3 5.8
2017-Aug-17 08:30N 34°37' E 135°07'4 8.0
2017-Aug-17 08:00N 34°40' E 135°11'1 2.6
2017-Aug-17 07:30N 34°41' E 135°11'0 0.0
2017-Aug-17 07:00N 34°41' E 135°11'3 5.4
2017-Aug-17 06:30N 34°38' E 135°11'1 1.5
2017-Aug-17 06:00N 34°38' E 135°10'3 6.0
2017-Aug-17 05:30N 34°41' E 135°11'0 0.0
2017-Aug-17 04:58N 34°41' E 135°11'2 4.9
2017-Aug-17 04:30N 34°39' E 135°11'4 8.3
2017-Aug-17 04:00N 34°37' E 135°06'3 6.2
2017-Aug-17 03:30N 34°38' E 135°10'3 5.8
2017-Aug-17 03:00N 34°41' E 135°11'0 0.0
2017-Aug-17 02:30N 34°41' E 135°11'0 0.0
2017-Aug-17 02:00N 34°41' E 135°11'0 0.0
2017-Aug-17 01:21N 34°41' E 135°11'0 0.0
2017-Aug-17 00:57N 34°41' E 135°11'0 0.0
2017-Aug-17 00:21N 34°41' E 135°11'0 0.0
2017-Aug-16 23:57N 34°41' E 135°11'0 0.0
2017-Aug-16 23:27N 34°41' E 135°11'0 0.0
2017-Aug-16 22:51N 34°41' E 135°11'0 0.0
2017-Aug-16 22:27N 34°41' E 135°11'0 0.0
2017-Aug-16 21:57N 34°41' E 135°11'0 0.0
2017-Aug-16 21:27N 34°41' E 135°11'0 0.0
2017-Aug-16 20:57N 34°41' E 135°11'0 0.0
2017-Aug-16 20:27N 34°41' E 135°11'0 0.0
2017-Aug-16 19:57N 34°41' E 135°11'0 0.0
2017-Aug-16 19:27N 34°41' E 135°11'0 0.0
2017-Aug-16 18:57N 34°41' E 135°11'0 0.0
2017-Aug-16 18:27N 34°41' E 135°11'0 0.0
2017-Aug-16 17:57N 34°41' E 135°11'0 0.0
2017-Aug-16 17:27N 34°41' E 135°11'0 0.0
2017-Aug-16 16:57N 34°41' E 135°11'0 0.0
2017-Aug-16 16:27N 34°41' E 135°11'0 0.0
2017-Aug-16 15:57N 34°41' E 135°11'0 0.0
2017-Aug-16 15:27N 34°41' E 135°11'0 0.0
2017-Aug-16 14:51N 34°41' E 135°11'0 0.0
2017-Aug-16 14:27N 34°41' E 135°11'0 0.0
2017-Aug-16 13:51N 34°41' E 135°11'0 0.0
2017-Aug-16 13:27N 34°41' E 135°11'0 0.0
2017-Aug-16 12:57N 34°41' E 135°11'0 0.0
2017-Aug-16 12:27N 34°41' E 135°11'0 0.1
2017-Aug-16 12:00N 34°41' E 135°11'3 7.0
2017-Aug-16 11:30N 34°38' E 135°09'4 7.8
2017-Aug-16 11:00N 34°37' E 135°05'4 8.2
2017-Aug-16 10:30N 34°38' E 135°10'3 6.1
2017-Aug-16 10:00N 34°41' E 135°11'0 0.0
2017-Aug-16 09:29N 34°41' E 135°11'3 5.8
2017-Aug-16 09:01N 34°38' E 135°10'3 5.1
2017-Aug-16 08:31N 34°37' E 135°08'4 8.2
2017-Aug-16 08:01N 34°40' E 135°11'1 2.4
2017-Aug-16 07:30N 34°41' E 135°11'0 0.0
2017-Aug-16 06:55N 34°41' E 135°11'3 6.9
2017-Aug-16 06:30N 34°38' E 135°11'1 1.8
2017-Aug-16 06:00N 34°38' E 135°10'3 6.2
2017-Aug-16 05:30N 34°41' E 135°11'0 0.0
2017-Aug-16 04:57N 34°41' E 135°11'2 4.0
2017-Aug-16 04:30N 34°39' E 135°11'4 7.4
2017-Aug-16 04:00N 34°38' E 135°07'2 4.1
2017-Aug-16 03:30N 34°38' E 135°10'3 6.4
2017-Aug-16 03:00N 34°41' E 135°11'0 0.0
2017-Aug-16 02:30N 34°41' E 135°11'0 0.0
2017-Aug-16 02:00N 34°41' E 135°11'0 0.0
2017-Aug-16 01:25N 34°41' E 135°11'0 0.0
2017-Aug-16 00:55N 34°41' E 135°11'0 0.0
2017-Aug-16 00:25N 34°41' E 135°11'0 0.0
2017-Aug-16 00:00N 34°41' E 135°11'0 0.0
2017-Aug-15 23:18N 34°41' E 135°11'0 0.0
2017-Aug-15 22:55N 34°41' E 135°11'0 0.0
2017-Aug-15 22:25N 34°41' E 135°11'0 0.0
2017-Aug-15 21:49N 34°41' E 135°11'0 0.0
2017-Aug-15 21:19N 34°41' E 135°11'0 0.0
2017-Aug-15 21:01N 34°41' E 135°11'0 0.0
2017-Aug-15 20:31N 34°41' E 135°11'0 0.0
2017-Aug-15 19:55N 34°41' E 135°11'0 0.0
2017-Aug-15 19:31N 34°41' E 135°11'0 0.0
2017-Aug-15 18:54N 34°41' E 135°11'0 0.0
2017-Aug-15 18:31N 34°41' E 135°11'0 0.0
2017-Aug-15 18:01N 34°41' E 135°11'0 0.0
2017-Aug-15 17:25N 34°41' E 135°11'0 0.0
2017-Aug-15 16:55N 34°41' E 135°11'0 0.0
2017-Aug-15 16:31N 34°41' E 135°11'0 0.0
2017-Aug-15 15:49N 34°41' E 135°11'0 0.0
2017-Aug-15 15:25N 34°41' E 135°11'0 0.0
2017-Aug-15 14:55N 34°41' E 135°11'0 0.0
2017-Aug-15 14:25N 34°41' E 135°11'0 0.0
2017-Aug-15 14:01N 34°41' E 135°11'0 0.0
2017-Aug-15 13:30N 34°41' E 135°11'0 0.0
2017-Aug-15 12:55N 34°41' E 135°11'0 0.0
2017-Aug-15 12:31N 34°41' E 135°11'0 0.1
2017-Aug-15 12:00N 34°41' E 135°11'3 6.8
2017-Aug-15 11:30N 34°38' E 135°10'3 6.9
2017-Aug-15 11:00N 34°37' E 135°06'4 7.6
2017-Aug-15 10:30N 34°38' E 135°10'3 5.7
2017-Aug-15 10:00N 34°41' E 135°11'0 0.0
2017-Aug-15 09:27N 34°41' E 135°11'2 4.9
2017-Aug-15 09:01N 34°39' E 135°11'3 6.2
2017-Aug-15 08:30N 34°37' E 135°08'4 8.1
2017-Aug-15 08:00N 34°40' E 135°11'1 1.2
2017-Aug-15 07:18N 34°41' E 135°11'0 0.0
2017-Aug-15 07:00N 34°41' E 135°11'3 5.4
2017-Aug-15 06:30N 34°38' E 135°11'1 1.6
2017-Aug-15 06:00N 34°38' E 135°10'3 5.8
2017-Aug-15 05:30N 34°41' E 135°11'0 0.0
2017-Aug-15 04:51N 34°41' E 135°11'2 5.9
2017-Aug-15 04:30N 34°39' E 135°11'4 7.2
2017-Aug-15 04:00N 34°37' E 135°07'2 3.9
2017-Aug-15 03:30N 34°38' E 135°10'3 6.3
2017-Aug-15 03:00N 34°41' E 135°11'0 0.0
2017-Aug-15 02:30N 34°41' E 135°11'0 0.0
2017-Aug-15 02:00N 34°41' E 135°11'0 0.0
2017-Aug-15 01:30N 34°41' E 135°11'0 0.0
2017-Aug-15 01:00N 34°41' E 135°11'0 0.0
2017-Aug-15 00:30N 34°41' E 135°11'0 0.0
2017-Aug-14 23:54N 34°41' E 135°11'0 0.0
2017-Aug-14 23:30N 34°41' E 135°11'0 0.0
2017-Aug-14 23:00N 34°41' E 135°11'0 0.0
2017-Aug-14 22:30N 34°41' E 135°11'0 0.0
2017-Aug-14 21:48N 34°41' E 135°11'0 0.0
2017-Aug-14 21:30N 34°41' E 135°11'0 0.0
2017-Aug-14 21:00N 34°41' E 135°11'0 0.0
2017-Aug-14 20:30N 34°41' E 135°11'0 0.0
2017-Aug-14 20:00N 34°41' E 135°11'0 0.0
2017-Aug-14 19:30N 34°41' E 135°11'0 0.0
2017-Aug-14 19:00N 34°41' E 135°11'0 0.0
2017-Aug-14 18:30N 34°41' E 135°11'0 0.0
2017-Aug-14 17:54N 34°41' E 135°11'0 0.0
2017-Aug-14 17:30N 34°41' E 135°11'0 0.0
2017-Aug-14 17:00N 34°41' E 135°11'0 0.0
2017-Aug-14 16:30N 34°41' E 135°11'0 0.0
2017-Aug-14 16:00N 34°41' E 135°11'0 0.0
2017-Aug-14 15:30N 34°41' E 135°11'0 0.0
2017-Aug-14 15:00N 34°41' E 135°11'0 0.0
2017-Aug-14 14:30N 34°41' E 135°11'0 0.0
2017-Aug-14 14:00N 34°41' E 135°11'0 0.0
2017-Aug-14 13:30N 34°41' E 135°11'0 0.0
2017-Aug-14 12:54N 34°41' E 135°11'0 0.0
2017-Aug-14 12:30N 34°41' E 135°11'0 0.5
2017-Aug-14 12:00N 34°41' E 135°11'4 7.3
2017-Aug-14 11:30N 34°37' E 135°09'3 6.0
2017-Aug-14 11:00N 34°37' E 135°06'4 8.0
2017-Aug-14 10:30N 34°38' E 135°10'3 5.7
2017-Aug-14 10:00N 34°41' E 135°11'0 0.0
2017-Aug-14 09:28N 34°41' E 135°11'2 5.3
2017-Aug-14 09:00N 34°38' E 135°11'3 6.4
2017-Aug-14 08:30N 34°37' E 135°07'4 7.7
2017-Aug-14 08:00N 34°39' E 135°11'1 2.7
2017-Aug-14 07:31N 34°41' E 135°11'0 0.0
2017-Aug-14 06:54N 34°41' E 135°11'3 6.6
2017-Aug-14 06:30N 34°38' E 135°11'1 2.0
2017-Aug-14 06:00N 34°38' E 135°10'3 5.5
2017-Aug-14 05:30N 34°41' E 135°11'0 0.0
2017-Aug-14 04:57N 34°41' E 135°11'2 4.5
2017-Aug-14 04:30N 34°39' E 135°11'4 8.1
2017-Aug-14 04:00N 34°37' E 135°07'3 5.9
2017-Aug-14 03:30N 34°38' E 135°10'3 5.1
2017-Aug-14 03:00N 34°41' E 135°11'0 0.0
2017-Aug-14 02:30N 34°41' E 135°11'0 0.0
2017-Aug-14 02:00N 34°41' E 135°11'0 0.0
2017-Aug-14 01:30N 34°41' E 135°11'0 0.0
2017-Aug-14 00:54N 34°41' E 135°11'0 0.0
2017-Aug-14 00:30N 34°41' E 135°11'0 0.0
2017-Aug-14 00:00N 34°41' E 135°11'0 0.0
2017-Aug-13 23:30N 34°41' E 135°11'0 0.0
2017-Aug-13 23:00N 34°41' E 135°11'0 0.0
2017-Aug-13 22:30N 34°41' E 135°11'0 0.0
2017-Aug-13 21:54N 34°41' E 135°11'0 0.0
2017-Aug-13 21:30N 34°41' E 135°11'0 0.0
2017-Aug-13 21:00N 34°41' E 135°11'0 0.0
2017-Aug-13 19:48N 34°41' E 135°11'0 0.0
2017-Aug-13 19:30N 34°41' E 135°11'0 0.0
2017-Aug-13 19:00N 34°41' E 135°11'0 0.0
2017-Aug-13 18:24N 34°41' E 135°11'0 0.0
2017-Aug-13 18:00N 34°41' E 135°11'0 0.0
2017-Aug-13 17:30N 34°41' E 135°11'0 0.0
2017-Aug-13 17:00N 34°41' E 135°11'0 0.0
2017-Aug-13 16:24N 34°41' E 135°11'0 0.0
2017-Aug-13 16:00N 34°41' E 135°11'0 0.0
2017-Aug-13 15:30N 34°41' E 135°11'0 0.0
2017-Aug-13 15:00N 34°41' E 135°11'0 0.0
2017-Aug-13 14:30N 34°41' E 135°11'0 0.0
2017-Aug-13 14:00N 34°41' E 135°11'0 0.0
2017-Aug-13 13:30N 34°41' E 135°11'0 0.0
2017-Aug-13 13:00N 34°41' E 135°11'0 0.0
2017-Aug-13 12:30N 34°41' E 135°11'0 0.6
2017-Aug-13 12:00N 34°41' E 135°11'4 7.3
2017-Aug-13 11:30N 34°37' E 135°10'4 8.3
2017-Aug-13 11:00N 34°37' E 135°05'4 8.4
2017-Aug-13 10:30N 34°38' E 135°10'3 6.4
2017-Aug-13 10:00N 34°41' E 135°11'0 0.0
2017-Aug-13 09:27N 34°41' E 135°11'2 4.4
2017-Aug-13 09:00N 34°39' E 135°11'3 6.1
2017-Aug-13 08:30N 34°38' E 135°08'4 7.1
2017-Aug-13 08:00N 34°40' E 135°11'1 2.2
2017-Aug-13 07:30N 34°41' E 135°11'0 0.0
2017-Aug-13 06:55N 34°41' E 135°11'2 4.9
2017-Aug-13 06:30N 34°39' E 135°11'1 2.8
2017-Aug-13 06:00N 34°38' E 135°10'3 6.0
2017-Aug-13 05:30N 34°41' E 135°11'0 0.0
2017-Aug-13 04:53N 34°41' E 135°11'2 4.1
2017-Aug-13 04:30N 34°39' E 135°11'4 8.5
2017-Aug-13 04:00N 34°37' E 135°07'3 5.4
2017-Aug-13 03:30N 34°38' E 135°10'3 6.0
2017-Aug-13 03:00N 34°41' E 135°11'0 0.0
2017-Aug-13 02:29N 34°41' E 135°11'0 0.0
2017-Aug-13 01:53N 34°41' E 135°11'0 0.0
2017-Aug-13 01:29N 34°41' E 135°11'0 0.0
2017-Aug-13 00:59N 34°41' E 135°11'0 0.0
2017-Aug-13 00:29N 34°41' E 135°11'0 0.0
2017-Aug-12 23:58N 34°41' E 135°11'0 0.0
2017-Aug-12 23:29N 34°41' E 135°11'0 0.0
2017-Aug-12 22:59N 34°41' E 135°11'0 0.0
2017-Aug-12 22:28N 34°41' E 135°11'0 0.0
2017-Aug-12 21:59N 34°41' E 135°11'0 0.0
2017-Aug-12 21:28N 34°41' E 135°11'0 0.0
2017-Aug-12 20:59N 34°41' E 135°11'0 0.0
2017-Aug-12 20:23N 34°41' E 135°11'0 0.0
2017-Aug-12 19:59N 34°41' E 135°11'0 0.0
2017-Aug-12 19:23N 34°41' E 135°11'0 0.0
2017-Aug-12 18:58N 34°41' E 135°11'0 0.0
2017-Aug-12 18:28N 34°41' E 135°11'0 0.0
2017-Aug-12 17:59N 34°41' E 135°11'0 0.0
2017-Aug-12 17:28N 34°41' E 135°11'0 0.0
2017-Aug-12 16:58N 34°41' E 135°11'0 0.0
2017-Aug-12 16:28N 34°41' E 135°11'0 0.0
2017-Aug-12 15:59N 34°41' E 135°11'0 0.0
2017-Aug-12 15:29N 34°41' E 135°11'0 0.0
2017-Aug-12 14:59N 34°41' E 135°11'0 0.0
2017-Aug-12 14:23N 34°41' E 135°11'0 0.0
2017-Aug-12 13:59N 34°41' E 135°11'0 0.0
2017-Aug-12 13:29N 34°41' E 135°11'0 0.0
2017-Aug-12 12:59N 34°41' E 135°11'0 0.0
2017-Aug-12 12:29N 34°41' E 135°11'0 0.3
2017-Aug-12 12:00N 34°41' E 135°11'3 7.0
2017-Aug-12 11:30N 34°37' E 135°10'4 8.4
2017-Aug-12 11:00N 34°37' E 135°05'4 8.5
2017-Aug-12 10:30N 34°38' E 135°10'3 5.6
2017-Aug-12 10:00N 34°41' E 135°11'0 0.0
2017-Aug-12 09:23N 34°41' E 135°11'2 6.5
2017-Aug-12 09:00N 34°38' E 135°11'3 5.9
2017-Aug-12 08:30N 34°37' E 135°08'4 8.3
2017-Aug-12 08:00N 34°40' E 135°11'1 2.5
2017-Aug-12 07:30N 34°41' E 135°11'0 0.0
2017-Aug-12 07:00N 34°41' E 135°11'3 5.1
2017-Aug-12 06:30N 34°38' E 135°11'1 2.1
2017-Aug-12 06:00N 34°38' E 135°10'3 5.9
2017-Aug-12 05:30N 34°41' E 135°11'0 0.0
2017-Aug-12 04:57N 34°41' E 135°11'2 4.4
2017-Aug-12 04:30N 34°39' E 135°11'4 8.1
2017-Aug-12 04:00N 34°37' E 135°07'3 5.6
2017-Aug-12 03:30N 34°38' E 135°10'3 5.7
2017-Aug-12 03:00N 34°41' E 135°11'0 0.0
2017-Aug-12 02:30N 34°41' E 135°11'0 0.0
2017-Aug-12 02:00N 34°41' E 135°11'0 0.0
2017-Aug-12 01:29N 34°41' E 135°11'0 0.0
2017-Aug-12 00:59N 34°41' E 135°11'0 0.0
2017-Aug-12 00:17N 34°41' E 135°11'0 0.0
2017-Aug-11 23:59N 34°41' E 135°11'0 0.0
2017-Aug-11 23:29N 34°41' E 135°11'0 0.0
2017-Aug-11 22:59N 34°41' E 135°11'0 0.0
2017-Aug-11 22:29N 34°41' E 135°11'0 0.0
2017-Aug-11 21:53N 34°41' E 135°11'0 0.0
2017-Aug-11 21:23N 34°41' E 135°11'0 0.0
2017-Aug-11 20:59N 34°41' E 135°11'0 0.0
2017-Aug-11 20:23N 34°41' E 135°11'0 0.0
2017-Aug-11 19:59N 34°41' E 135°11'0 0.0
2017-Aug-11 19:29N 34°41' E 135°11'0 0.0
2017-Aug-11 18:59N 34°41' E 135°11'0 0.0
2017-Aug-11 18:29N 34°41' E 135°11'0 0.0
2017-Aug-11 17:59N 34°41' E 135°11'0 0.0
2017-Aug-11 17:29N 34°41' E 135°11'0 0.0
2017-Aug-11 16:59N 34°41' E 135°11'0 0.0
2017-Aug-11 16:29N 34°41' E 135°11'0 0.0
2017-Aug-11 15:59N 34°41' E 135°11'0 0.0
2017-Aug-11 15:29N 34°41' E 135°11'0 0.0
2017-Aug-11 14:59N 34°41' E 135°11'0 0.0
2017-Aug-11 13:59N 34°41' E 135°11'0 0.0
2017-Aug-11 13:29N 34°41' E 135°11'0 0.0
2017-Aug-11 12:59N 34°41' E 135°11'0 0.0
2017-Aug-11 12:23N 34°41' E 135°11'0 0.5
2017-Aug-11 12:00N 34°41' E 135°11'3 6.8
2017-Aug-11 11:30N 34°38' E 135°10'4 7.4
2017-Aug-11 11:00N 34°36' E 135°05'4 8.1
2017-Aug-11 10:30N 34°38' E 135°10'3 5.8
2017-Aug-11 10:00N 34°41' E 135°11'0 0.0
2017-Aug-11 09:25N 34°41' E 135°11'3 6.8
2017-Aug-11 09:00N 34°38' E 135°10'2 3.8
2017-Aug-11 08:30N 34°37' E 135°08'4 7.5
2017-Aug-11 08:00N 34°40' E 135°11'1 2.2
2017-Aug-11 07:30N 34°41' E 135°11'0 0.0
2017-Aug-11 07:00N 34°41' E 135°11'3 5.7
2017-Aug-11 06:30N 34°38' E 135°11'0 0.3
2017-Aug-11 06:00N 34°38' E 135°11'3 5.3
2017-Aug-11 05:30N 34°41' E 135°11'0 0.0
2017-Aug-11 05:00N 34°41' E 135°11'2 3.8
2017-Aug-11 04:30N 34°39' E 135°11'4 8.4
2017-Aug-11 04:00N 34°37' E 135°07'3 5.3
2017-Aug-11 03:30N 34°38' E 135°10'3 6.2
2017-Aug-11 03:00N 34°41' E 135°11'0 0.0
2017-Aug-11 02:30N 34°41' E 135°11'0 0.0
2017-Aug-11 01:53N 34°41' E 135°11'0 0.0
2017-Aug-11 01:29N 34°41' E 135°11'0 0.0
2017-Aug-11 00:59N 34°41' E 135°11'0 0.0
2017-Aug-11 00:29N 34°41' E 135°11'0 0.0
2017-Aug-10 23:59N 34°41' E 135°11'0 0.0
2017-Aug-10 23:29N 34°41' E 135°11'0 0.0
2017-Aug-10 22:59N 34°41' E 135°11'0 0.0
2017-Aug-10 22:29N 34°41' E 135°11'0 0.0
2017-Aug-10 21:59N 34°41' E 135°11'0 0.0
2017-Aug-10 21:29N 34°41' E 135°11'0 0.0
2017-Aug-10 20:59N 34°41' E 135°11'0 0.0
2017-Aug-10 20:23N 34°41' E 135°11'0 0.0
2017-Aug-10 19:59N 34°41' E 135°11'0 0.0
2017-Aug-10 19:29N 34°41' E 135°11'0 0.0
2017-Aug-10 18:59N 34°41' E 135°11'0 0.0
2017-Aug-10 18:29N 34°41' E 135°11'0 0.0
2017-Aug-10 17:53N 34°41' E 135°11'0 0.0
2017-Aug-10 17:29N 34°41' E 135°11'0 0.0
2017-Aug-10 16:53N 34°41' E 135°11'0 0.0
2017-Aug-10 16:23N 34°41' E 135°11'0 0.0
2017-Aug-10 15:59N 34°41' E 135°11'0 0.0
2017-Aug-10 15:29N 34°41' E 135°11'0 0.0
2017-Aug-10 14:59N 34°41' E 135°11'0 0.0
2017-Aug-10 14:29N 34°41' E 135°11'0 0.0
2017-Aug-10 13:47N 34°41' E 135°11'0 0.0
2017-Aug-10 13:29N 34°41' E 135°11'0 0.0
2017-Aug-10 12:59N 34°41' E 135°11'0 0.0
2017-Aug-10 12:29N 34°41' E 135°11'0 0.3
2017-Aug-10 12:00N 34°41' E 135°11'3 6.8
2017-Aug-10 11:30N 34°38' E 135°09'4 7.7
2017-Aug-10 11:00N 34°37' E 135°05'4 8.4
2017-Aug-10 10:30N 34°38' E 135°10'3 6.0
2017-Aug-10 10:00N 34°41' E 135°11'0 0.0
2017-Aug-10 09:26N 34°41' E 135°11'3 6.1
2017-Aug-10 09:00N 34°38' E 135°11'3 5.9
2017-Aug-10 08:30N 34°37' E 135°07'4 8.0
2017-Aug-10 08:00N 34°40' E 135°11'1 2.3
2017-Aug-10 07:27N 34°41' E 135°11'0 0.0
2017-Aug-10 06:57N 34°41' E 135°11'2 5.2
2017-Aug-10 06:30N 34°38' E 135°11'1 1.8
2017-Aug-10 06:00N 34°38' E 135°10'3 5.9
2017-Aug-10 05:30N 34°41' E 135°11'0 0.0
2017-Aug-10 04:56N 34°41' E 135°11'2 4.9
2017-Aug-10 04:30N 34°39' E 135°11'4 8.6
2017-Aug-10 04:00N 34°37' E 135°06'3 5.3
2017-Aug-10 03:30N 34°38' E 135°09'3 6.1
2017-Aug-10 03:00N 34°41' E 135°11'0 0.0
2017-Aug-10 02:30N 34°41' E 135°11'0 0.0
2017-Aug-10 01:51N 34°41' E 135°11'0 0.0
2017-Aug-10 01:27N 34°41' E 135°11'0 0.0
2017-Aug-10 00:56N 34°41' E 135°11'0 0.0
2017-Aug-10 00:27N 34°41' E 135°11'0 0.0
2017-Aug-09 23:57N 34°41' E 135°11'0 0.0
2017-Aug-09 23:27N 34°41' E 135°11'0 0.0
2017-Aug-09 22:56N 34°41' E 135°11'0 0.0
2017-Aug-09 22:21N 34°41' E 135°11'0 0.0
2017-Aug-09 21:57N 34°41' E 135°11'0 0.0
2017-Aug-09 21:20N 34°41' E 135°11'0 0.0
2017-Aug-09 20:50N 34°41' E 135°11'0 0.0
2017-Aug-09 20:21N 34°41' E 135°11'0 0.0
2017-Aug-09 19:56N 34°41' E 135°11'0 0.0
2017-Aug-09 19:27N 34°41' E 135°11'0 0.0
2017-Aug-09 18:51N 34°41' E 135°11'0 0.0
2017-Aug-09 18:26N 34°41' E 135°11'0 0.0
2017-Aug-09 17:56N 34°41' E 135°11'0 0.0
2017-Aug-09 17:26N 34°41' E 135°11'0 0.0
2017-Aug-09 16:56N 34°41' E 135°11'0 0.0
2017-Aug-09 16:27N 34°41' E 135°11'0 0.0
2017-Aug-09 15:57N 34°41' E 135°11'0 0.0
2017-Aug-09 15:20N 34°41' E 135°11'0 0.0
2017-Aug-09 14:51N 34°41' E 135°11'0 0.0
2017-Aug-09 14:26N 34°41' E 135°11'0 0.0
2017-Aug-09 13:56N 34°41' E 135°11'0 0.0
2017-Aug-09 13:20N 34°41' E 135°11'0 0.0
2017-Aug-09 12:56N 34°41' E 135°11'0 0.0
2017-Aug-09 12:26N 34°41' E 135°11'0 0.1
2017-Aug-09 12:00N 34°41' E 135°11'3 6.6
2017-Aug-09 11:30N 34°38' E 135°10'4 8.0
2017-Aug-09 11:00N 34°37' E 135°05'4 8.5
2017-Aug-09 10:30N 34°38' E 135°10'3 5.9
2017-Aug-09 10:00N 34°41' E 135°11'0 0.0
2017-Aug-09 09:30N 34°41' E 135°11'3 5.3
2017-Aug-09 09:00N 34°38' E 135°11'3 6.4
2017-Aug-09 08:30N 34°38' E 135°07'4 8.4
2017-Aug-09 08:00N 34°39' E 135°11'1 2.0
2017-Aug-09 07:20N 34°41' E 135°11'0 0.0
2017-Aug-09 06:57N 34°41' E 135°11'3 6.6
2017-Aug-09 06:30N 34°38' E 135°11'1 1.1
2017-Aug-09 06:00N 34°38' E 135°10'3 5.8
2017-Aug-09 05:30N 34°41' E 135°11'0 0.0
2017-Aug-09 05:00N 34°41' E 135°11'2 4.9
2017-Aug-09 04:30N 34°38' E 135°11'4 8.9
2017-Aug-09 04:00N 34°37' E 135°06'4 7.0
2017-Aug-09 03:30N 34°38' E 135°10'3 5.4
2017-Aug-09 03:00N 34°41' E 135°11'0 0.0
2017-Aug-09 02:30N 34°41' E 135°11'0 0.0
2017-Aug-09 02:00N 34°41' E 135°11'0 0.0
2017-Aug-09 01:28N 34°41' E 135°11'0 0.0
2017-Aug-09 00:52N 34°41' E 135°11'0 0.0
2017-Aug-09 00:28N 34°41' E 135°11'0 0.0
2017-Aug-08 23:58N 34°41' E 135°11'  

Dump ship's entire track history